createdAt,value
2017-09-17T00:00:49.233Z,0.00
2017-09-17T00:02:42.240Z,0.00
2017-09-17T00:03:42.277Z,0.00
2017-09-17T00:05:35.268Z,0.00
2017-09-17T00:06:35.321Z,0.00
2017-09-17T00:08:28.330Z,0.00
2017-09-17T00:09:28.372Z,0.00
2017-09-17T00:11:21.360Z,0.00
2017-09-17T00:12:21.419Z,0.00
2017-09-17T00:14:14.428Z,0.00
2017-09-17T00:15:14.469Z,0.00
2017-09-17T00:17:07.471Z,0.00
2017-09-17T00:18:07.509Z,0.00
2017-09-17T00:20:00.506Z,0.00
2017-09-17T00:21:00.554Z,0.00
2017-09-17T00:22:53.559Z,0.00
2017-09-17T00:23:53.600Z,0.00
2017-09-17T00:25:46.587Z,0.00
2017-09-17T00:26:46.647Z,0.00
2017-09-17T00:28:39.649Z,0.00
2017-09-17T00:29:39.688Z,0.00
2017-09-17T00:31:32.675Z,0.00
2017-09-17T00:32:32.737Z,0.00
2017-09-17T00:34:25.740Z,0.00
2017-09-17T00:35:25.779Z,0.00
2017-09-17T00:37:19.295Z,0.00
2017-09-17T00:38:19.331Z,0.00
2017-09-17T00:40:12.317Z,0.00
2017-09-17T00:41:12.386Z,0.00
2017-09-17T00:43:05.382Z,0.00
2017-09-17T00:44:05.420Z,0.00
2017-09-17T00:45:58.406Z,0.00
2017-09-17T00:46:58.467Z,0.00
2017-09-17T00:48:51.470Z,0.00
2017-09-17T00:49:51.510Z,0.00
2017-09-17T00:51:44.499Z,0.00
2017-09-17T00:52:44.555Z,0.00
2017-09-17T00:54:37.580Z,0.00
2017-09-17T00:55:37.601Z,0.00
2017-09-17T00:57:30.602Z,0.00
2017-09-17T00:58:30.641Z,0.00
2017-09-17T01:00:23.627Z,0.00
2017-09-17T01:01:23.686Z,0.00
2017-09-17T01:03:16.693Z,0.00
2017-09-17T01:04:16.732Z,0.00
2017-09-17T01:06:09.719Z,0.00
2017-09-17T01:07:09.780Z,0.00
2017-09-17T01:09:02.788Z,0.00
2017-09-17T01:10:02.828Z,0.00
2017-09-17T01:11:55.816Z,0.00
2017-09-17T01:12:55.877Z,0.00
2017-09-17T01:14:48.878Z,0.00
2017-09-17T01:15:48.915Z,0.00
2017-09-17T01:17:41.923Z,0.00
2017-09-17T01:18:42.002Z,0.00
2017-09-17T01:20:34.946Z,0.00
2017-09-17T01:21:35.010Z,0.00
2017-09-17T01:23:28.012Z,0.00
2017-09-17T01:24:28.050Z,0.00
2017-09-17T01:26:21.040Z,0.00
2017-09-17T01:27:21.097Z,0.00
2017-09-17T01:29:14.106Z,0.00
2017-09-17T01:30:14.145Z,0.00
2017-09-17T01:32:07.149Z,0.00
2017-09-17T01:33:07.187Z,0.00
2017-09-17T01:35:00.204Z,0.00
2017-09-17T01:36:00.231Z,0.00
2017-09-17T01:37:53.746Z,0.00
2017-09-17T01:38:53.932Z,0.00
2017-09-17T01:40:46.771Z,0.00
2017-09-17T01:41:46.828Z,0.00
2017-09-17T01:43:39.836Z,0.00
2017-09-17T01:44:39.869Z,0.00
2017-09-17T01:46:32.857Z,0.00
2017-09-17T01:47:32.922Z,0.00
2017-09-17T01:49:25.923Z,0.00
2017-09-17T01:50:25.963Z,0.00
2017-09-17T01:52:18.952Z,0.00
2017-09-17T01:53:19.012Z,0.00
2017-09-17T01:55:12.016Z,0.00
2017-09-17T01:56:12.057Z,0.00
2017-09-17T01:58:05.074Z,0.00
2017-09-17T01:59:05.104Z,0.00
2017-09-17T02:00:58.090Z,0.00
2017-09-17T02:01:58.145Z,0.00
2017-09-17T02:03:51.151Z,0.00
2017-09-17T02:04:51.191Z,0.00
2017-09-17T02:06:44.172Z,0.00
2017-09-17T02:07:44.233Z,0.00
2017-09-17T02:09:37.244Z,0.00
2017-09-17T02:10:37.281Z,0.00
2017-09-17T02:12:30.261Z,0.00
2017-09-17T02:13:30.322Z,0.00
2017-09-17T02:15:23.336Z,0.00
2017-09-17T02:16:23.370Z,0.00
2017-09-17T02:18:16.373Z,0.00
2017-09-17T02:19:16.412Z,0.00
2017-09-17T02:21:09.399Z,0.00
2017-09-17T02:22:09.461Z,0.00
2017-09-17T02:24:02.465Z,0.00
2017-09-17T02:25:02.505Z,0.00
2017-09-17T02:26:55.490Z,0.00
2017-09-17T02:27:55.578Z,0.00
2017-09-17T02:29:48.555Z,0.00
2017-09-17T02:30:48.593Z,0.00
2017-09-17T02:32:41.582Z,0.00
2017-09-17T02:33:41.638Z,0.00
2017-09-17T02:35:34.642Z,0.00
2017-09-17T02:36:34.681Z,0.00
2017-09-17T02:38:27.688Z,0.00
2017-09-17T02:39:27.722Z,0.00
2017-09-17T02:41:20.726Z,0.00
2017-09-17T02:42:20.765Z,0.00
2017-09-17T02:44:13.781Z,0.00
2017-09-17T02:45:13.810Z,0.00
2017-09-17T02:47:06.799Z,0.00
2017-09-17T02:48:06.861Z,0.00
2017-09-17T02:49:59.864Z,0.00
2017-09-17T02:50:59.910Z,0.00
2017-09-17T02:52:52.886Z,0.00
2017-09-17T02:53:52.948Z,0.00
2017-09-17T02:55:45.948Z,0.00
2017-09-17T02:56:45.988Z,0.00
2017-09-17T02:58:38.994Z,0.00
2017-09-17T02:59:39.032Z,0.00
2017-09-17T03:01:32.017Z,0.00
2017-09-17T03:02:32.078Z,0.00
2017-09-17T03:04:25.085Z,0.00
2017-09-17T03:05:25.120Z,0.00
2017-09-17T03:07:18.107Z,0.00
2017-09-17T03:08:18.164Z,0.00
2017-09-17T03:10:11.169Z,0.00
2017-09-17T03:11:11.207Z,0.00
2017-09-17T03:13:04.196Z,0.00
2017-09-17T03:14:04.252Z,0.00
2017-09-17T03:15:57.254Z,0.00
2017-09-17T03:16:57.295Z,0.00
2017-09-17T03:18:50.300Z,0.00
2017-09-17T03:19:50.342Z,0.00
2017-09-17T03:21:43.324Z,0.00
2017-09-17T03:22:43.384Z,0.00
2017-09-17T03:24:36.394Z,0.00
2017-09-17T03:25:36.433Z,0.00
2017-09-17T03:27:29.444Z,0.00
2017-09-17T03:28:29.484Z,0.00
2017-09-17T03:30:22.490Z,0.00
2017-09-17T03:31:22.539Z,0.00
2017-09-17T03:33:15.510Z,0.00
2017-09-17T03:34:15.568Z,0.00
2017-09-17T03:36:08.570Z,0.00
2017-09-17T03:37:08.609Z,0.00
2017-09-17T03:39:01.612Z,0.00
2017-09-17T03:40:01.653Z,0.00
2017-09-17T03:41:54.635Z,0.00
2017-09-17T03:42:54.694Z,0.00
2017-09-17T03:44:47.699Z,0.00
2017-09-17T03:45:47.739Z,0.00
2017-09-17T03:47:40.721Z,0.00
2017-09-17T03:48:40.786Z,0.00
2017-09-17T03:50:33.784Z,0.00
2017-09-17T03:51:33.824Z,0.00
2017-09-17T03:53:26.810Z,0.00
2017-09-17T03:54:26.865Z,0.00
2017-09-17T03:56:19.867Z,0.00
2017-09-17T03:57:19.908Z,0.00
2017-09-17T03:59:12.909Z,0.00
2017-09-17T04:00:12.948Z,0.00
2017-09-17T04:02:05.931Z,0.00
2017-09-17T04:03:05.991Z,0.00
2017-09-17T04:04:58.993Z,0.00
2017-09-17T04:05:59.032Z,0.00
2017-09-17T04:07:52.013Z,0.00
2017-09-17T04:08:52.076Z,0.00
2017-09-17T04:10:45.081Z,0.00
2017-09-17T04:11:45.120Z,0.00
2017-09-17T04:13:38.102Z,0.00
2017-09-17T04:14:38.162Z,0.00
2017-09-17T04:16:31.163Z,0.00
2017-09-17T04:17:31.204Z,0.00
2017-09-17T04:19:24.206Z,0.00
2017-09-17T04:20:24.245Z,0.00
2017-09-17T04:22:17.227Z,0.00
2017-09-17T04:23:17.297Z,0.00
2017-09-17T04:25:10.290Z,0.00
2017-09-17T04:26:10.328Z,0.00
2017-09-17T04:28:03.317Z,0.00
2017-09-17T04:29:03.369Z,0.00
2017-09-17T04:30:56.371Z,0.00
2017-09-17T04:31:56.411Z,0.00
2017-09-17T04:33:49.393Z,0.00
2017-09-17T04:34:49.456Z,0.00
2017-09-17T04:36:42.458Z,0.00
2017-09-17T04:37:42.499Z,0.00
2017-09-17T04:39:35.502Z,0.00
2017-09-17T04:40:35.540Z,0.00
2017-09-17T04:42:28.532Z,0.00
2017-09-17T04:43:28.596Z,0.00
2017-09-17T04:45:21.635Z,0.00
2017-09-17T04:46:21.638Z,0.00
2017-09-17T04:48:14.628Z,0.00
2017-09-17T04:49:14.686Z,0.00
2017-09-17T04:51:07.688Z,0.00
2017-09-17T04:52:07.727Z,0.00
2017-09-17T04:54:00.710Z,0.00
2017-09-17T04:55:00.772Z,0.00
2017-09-17T04:56:53.771Z,0.00
2017-09-17T04:57:53.810Z,0.00
2017-09-17T04:59:46.814Z,5.63
2017-09-17T05:00:46.853Z,5.63
2017-09-17T05:02:39.835Z,5.63
2017-09-17T05:03:39.893Z,5.63
2017-09-17T05:05:32.903Z,5.63
2017-09-17T05:06:32.943Z,11.25
2017-09-17T05:08:25.926Z,11.25
2017-09-17T05:09:25.986Z,11.25
2017-09-17T05:11:18.989Z,16.88
2017-09-17T05:12:19.027Z,16.88
2017-09-17T05:14:12.013Z,16.88
2017-09-17T05:15:12.071Z,22.50
2017-09-17T05:17:05.075Z,22.50
2017-09-17T05:18:05.114Z,22.50
2017-09-17T05:19:58.115Z,28.13
2017-09-17T05:20:58.155Z,28.13
2017-09-17T05:22:51.137Z,33.75
2017-09-17T05:23:51.226Z,39.38
2017-09-17T05:25:44.199Z,39.38
2017-09-17T05:26:44.237Z,45.00
2017-09-17T05:28:37.243Z,50.63
2017-09-17T05:29:37.306Z,50.63
2017-09-17T05:31:30.333Z,56.25
2017-09-17T05:32:30.373Z,61.88
2017-09-17T05:34:23.330Z,61.88
2017-09-17T05:35:23.389Z,67.50
2017-09-17T05:37:16.901Z,73.13
2017-09-17T05:38:16.938Z,73.13
2017-09-17T05:40:09.973Z,78.75
2017-09-17T05:41:10.028Z,78.75
2017-09-17T05:43:02.988Z,84.38
2017-09-17T05:44:03.046Z,90.00
2017-09-17T05:45:56.050Z,101.25
2017-09-17T05:46:56.091Z,106.88
2017-09-17T05:48:49.115Z,106.88
2017-09-17T05:49:49.132Z,106.88
2017-09-17T05:51:42.180Z,123.75
2017-09-17T05:52:42.175Z,123.75
2017-09-17T05:54:35.157Z,129.38
2017-09-17T05:55:35.213Z,129.38
2017-09-17T05:57:28.221Z,135.00
2017-09-17T05:58:28.262Z,140.63
2017-09-17T06:00:21.281Z,146.25
2017-09-17T06:01:21.320Z,151.88
2017-09-17T06:03:14.293Z,157.50
2017-09-17T06:04:14.371Z,163.13
2017-09-17T06:06:07.370Z,163.13
2017-09-17T06:07:07.409Z,157.50
2017-09-17T06:09:00.391Z,151.88
2017-09-17T06:10:00.451Z,157.50
2017-09-17T06:11:53.464Z,174.38
2017-09-17T06:12:53.519Z,196.88
2017-09-17T06:14:46.494Z,208.13
2017-09-17T06:15:46.541Z,213.75
2017-09-17T06:17:39.542Z,225.00
2017-09-17T06:18:39.587Z,230.63
2017-09-17T06:20:32.586Z,247.50
2017-09-17T06:21:32.625Z,258.75
2017-09-17T06:23:25.666Z,281.25
2017-09-17T06:24:25.703Z,286.88
2017-09-17T06:26:18.679Z,326.25
2017-09-17T06:27:18.724Z,348.75
2017-09-17T06:29:11.708Z,371.25
2017-09-17T06:30:11.764Z,388.13
2017-09-17T06:32:04.765Z,421.88
2017-09-17T06:33:04.812Z,433.13
2017-09-17T06:34:57.790Z,444.38
2017-09-17T06:35:57.849Z,461.25
2017-09-17T06:37:51.382Z,472.50
2017-09-17T06:38:51.419Z,483.75
2017-09-17T06:40:44.424Z,517.50
2017-09-17T06:41:44.461Z,669.38
2017-09-17T06:43:37.453Z,1428.75
2017-09-17T06:44:37.509Z,1541.25
2017-09-17T06:46:30.520Z,1496.25
2017-09-17T06:47:30.564Z,1485.00
2017-09-17T06:49:23.569Z,1586.25
2017-09-17T06:50:23.611Z,1603.13
2017-09-17T06:52:16.621Z,1597.50
2017-09-17T06:53:16.660Z,1642.50
2017-09-17T06:55:09.652Z,1721.25
2017-09-17T06:56:09.717Z,1794.38
2017-09-17T06:58:02.725Z,1721.25
2017-09-17T06:59:02.766Z,1704.38
2017-09-17T07:00:55.778Z,1749.38
2017-09-17T07:01:55.821Z,1805.63
2017-09-17T07:03:48.817Z,1788.75
2017-09-17T07:04:48.877Z,1800.00
2017-09-17T07:06:41.889Z,1878.75
2017-09-17T07:07:41.937Z,1980.00
2017-09-17T07:09:34.935Z,2070.00
2017-09-17T07:10:35.001Z,2092.50
2017-09-17T07:12:28.025Z,2086.88
2017-09-17T07:13:28.078Z,2025.00
2017-09-17T07:15:21.065Z,2053.13
2017-09-17T07:16:21.130Z,2092.50
2017-09-17T07:18:14.149Z,2030.63
2017-09-17T07:19:14.197Z,2041.88
2017-09-17T07:21:07.267Z,1968.75
2017-09-17T07:22:07.537Z,1957.50
2017-09-17T07:24:00.259Z,2025.00
2017-09-17T07:25:00.327Z,2081.25
2017-09-17T07:26:53.348Z,1215.00
2017-09-17T07:27:53.395Z,573.75
2017-09-17T07:29:46.398Z,2081.25
2017-09-17T07:30:46.464Z,2233.13
2017-09-17T07:32:39.486Z,2143.13
2017-09-17T07:33:39.531Z,2199.38
2017-09-17T07:35:32.535Z,2283.75
2017-09-17T07:36:32.600Z,2328.75
2017-09-17T07:38:25.624Z,2317.50
2017-09-17T07:39:25.671Z,2368.13
2017-09-17T07:41:18.698Z,2430.00
2017-09-17T07:42:18.740Z,2385.00
2017-09-17T07:44:11.742Z,2407.50
2017-09-17T07:45:11.809Z,2441.25
2017-09-17T07:47:04.833Z,2497.50
2017-09-17T07:48:04.881Z,2497.50
2017-09-17T07:49:57.887Z,2626.88
2017-09-17T07:50:57.958Z,2638.13
2017-09-17T07:52:50.981Z,2514.38
2017-09-17T07:53:51.030Z,2548.13
2017-09-17T07:55:44.036Z,2970.00
2017-09-17T07:56:44.115Z,3088.13
2017-09-17T07:58:37.218Z,3105.00
2017-09-17T07:59:37.182Z,1254.38
2017-09-17T08:01:30.219Z,2790.00
2017-09-17T08:02:30.255Z,2756.25
2017-09-17T08:04:23.261Z,2666.25
2017-09-17T08:05:23.329Z,2581.88
2017-09-17T08:07:16.364Z,2868.75
2017-09-17T08:08:16.402Z,1490.63
2017-09-17T08:10:09.406Z,2728.13
2017-09-17T08:11:09.477Z,2576.25
2017-09-17T08:13:02.499Z,2694.38
2017-09-17T08:14:02.552Z,2823.75
2017-09-17T08:15:55.712Z,2520.00
2017-09-17T08:16:55.668Z,2660.63
2017-09-17T08:18:48.703Z,2266.88
2017-09-17T08:19:49.137Z,2671.88
2017-09-17T08:21:42.155Z,2716.88
2017-09-17T08:22:42.788Z,2615.63
2017-09-17T08:24:34.787Z,2581.88
2017-09-17T08:25:34.870Z,2660.63
2017-09-17T08:27:27.937Z,2430.00
2017-09-17T08:28:27.934Z,2683.13
2017-09-17T08:30:20.945Z,2508.75
2017-09-17T08:31:21.029Z,2632.50
2017-09-17T08:33:14.045Z,2660.63
2017-09-17T08:34:14.098Z,2565.00
2017-09-17T08:36:07.145Z,2587.50
2017-09-17T08:37:07.370Z,2469.38
2017-09-17T08:39:00.208Z,2806.88
2017-09-17T08:40:00.255Z,2745.00
2017-09-17T08:41:53.282Z,2868.75
2017-09-17T08:42:53.336Z,2868.75
2017-09-17T08:44:46.338Z,2818.13
2017-09-17T08:45:46.409Z,2565.00
2017-09-17T08:47:39.437Z,1580.63
2017-09-17T08:48:39.486Z,759.38
2017-09-17T08:50:32.497Z,2767.50
2017-09-17T08:51:32.568Z,1271.25
2017-09-17T08:53:25.590Z,1884.38
2017-09-17T08:54:25.640Z,2216.25
2017-09-17T08:56:18.649Z,635.63
2017-09-17T08:57:18.730Z,691.88
2017-09-17T08:59:11.770Z,860.63
2017-09-17T09:00:11.807Z,905.63
2017-09-17T09:02:04.827Z,770.63
2017-09-17T09:03:04.876Z,736.88
2017-09-17T09:04:57.922Z,703.13
2017-09-17T09:05:57.958Z,596.25
2017-09-17T09:07:50.993Z,500.63
2017-09-17T09:08:51.039Z,551.25
2017-09-17T09:10:44.048Z,534.38
2017-09-17T09:11:44.116Z,590.63
2017-09-17T09:13:37.143Z,517.50
2017-09-17T09:14:37.182Z,478.13
2017-09-17T09:16:30.188Z,506.25
2017-09-17T09:17:30.271Z,562.50
2017-09-17T09:19:23.280Z,523.13
2017-09-17T09:20:23.325Z,630.00
2017-09-17T09:22:16.355Z,511.88
2017-09-17T09:23:16.399Z,528.75
2017-09-17T09:25:09.408Z,669.38
2017-09-17T09:26:09.471Z,658.13
2017-09-17T09:28:02.514Z,703.13
2017-09-17T09:29:02.546Z,658.13
2017-09-17T09:30:55.551Z,748.13
2017-09-17T09:31:55.642Z,618.75
2017-09-17T09:33:48.655Z,506.25
2017-09-17T09:34:48.693Z,461.25
2017-09-17T09:36:41.695Z,461.25
2017-09-17T09:37:41.770Z,416.25
2017-09-17T09:39:34.789Z,421.88
2017-09-17T09:40:34.834Z,421.88
2017-09-17T09:42:27.853Z,455.63
2017-09-17T09:43:27.897Z,461.25
2017-09-17T09:45:20.898Z,483.75
2017-09-17T09:46:20.965Z,579.38
2017-09-17T09:48:13.987Z,416.25
2017-09-17T09:49:14.029Z,376.88
2017-09-17T09:51:07.025Z,495.00
2017-09-17T09:52:07.095Z,511.88
2017-09-17T09:54:00.106Z,405.00
2017-09-17T09:55:00.153Z,489.38
2017-09-17T09:56:53.147Z,444.38
2017-09-17T09:57:53.211Z,523.13
2017-09-17T09:59:46.225Z,511.88
2017-09-17T10:00:46.272Z,438.75
2017-09-17T10:02:39.285Z,618.75
2017-09-17T10:03:39.340Z,669.38
2017-09-17T10:05:32.323Z,568.13
2017-09-17T10:06:32.388Z,506.25
2017-09-17T10:08:25.408Z,472.50
2017-09-17T10:09:25.452Z,466.88
2017-09-17T10:11:18.451Z,427.50
2017-09-17T10:12:18.536Z,399.38
2017-09-17T10:14:11.552Z,523.13
2017-09-17T10:15:11.573Z,624.38
2017-09-17T10:17:04.574Z,658.13
2017-09-17T10:18:04.637Z,601.88
2017-09-17T10:19:57.651Z,511.88
2017-09-17T10:20:57.695Z,478.13
2017-09-17T10:22:50.715Z,472.50
2017-09-17T10:23:50.757Z,506.25
2017-09-17T10:25:43.829Z,478.13
2017-09-17T10:26:43.823Z,455.63
2017-09-17T10:28:36.837Z,416.25
2017-09-17T10:29:36.881Z,433.13
2017-09-17T10:31:29.892Z,534.38
2017-09-17T10:32:29.938Z,528.75
2017-09-17T10:34:22.956Z,478.13
2017-09-17T10:35:23.002Z,461.25
2017-09-17T10:37:16.009Z,455.63
2017-09-17T10:38:16.068Z,438.75
2017-09-17T10:40:09.082Z,421.88
2017-09-17T10:41:09.131Z,472.50
2017-09-17T10:43:02.140Z,601.88
2017-09-17T10:44:02.211Z,680.63
2017-09-17T10:45:55.686Z,675.00
2017-09-17T10:46:55.752Z,590.63
2017-09-17T10:48:48.766Z,506.25
2017-09-17T10:49:48.809Z,506.25
2017-09-17T10:51:41.807Z,511.88
2017-09-17T10:52:41.871Z,517.50
2017-09-17T10:54:34.890Z,523.13
2017-09-17T10:55:34.939Z,517.50
2017-09-17T10:57:28.018Z,528.75
2017-09-17T10:58:27.991Z,528.75
2017-09-17T11:00:21.008Z,472.50
2017-09-17T11:01:21.052Z,450.00
2017-09-17T11:03:14.113Z,416.25
2017-09-17T11:04:14.114Z,388.13
2017-09-17T11:06:07.112Z,405.00
2017-09-17T11:07:07.211Z,444.38
2017-09-17T11:09:00.302Z,528.75
2017-09-17T11:10:00.238Z,556.88
2017-09-17T11:11:53.293Z,551.25
2017-09-17T11:12:53.299Z,517.50
2017-09-17T11:14:46.941Z,450.00
2017-09-17T11:15:46.866Z,427.50
2017-09-17T11:17:39.886Z,399.38
2017-09-17T11:18:39.924Z,376.88
2017-09-17T11:20:32.979Z,399.38
2017-09-17T11:21:32.990Z,393.75
2017-09-17T11:23:26.008Z,416.25
2017-09-17T11:24:26.106Z,427.50
2017-09-17T11:26:19.047Z,444.38
2017-09-17T11:27:19.117Z,455.63
2017-09-17T11:29:12.138Z,455.63
2017-09-17T11:30:12.190Z,455.63
2017-09-17T11:32:05.172Z,483.75
2017-09-17T11:33:05.235Z,562.50
2017-09-17T11:34:58.265Z,680.63
2017-09-17T11:35:58.307Z,720.00
2017-09-17T11:37:51.309Z,787.50
2017-09-17T11:38:51.368Z,793.13
2017-09-17T11:40:44.902Z,765.00
2017-09-17T11:41:44.947Z,748.13
2017-09-17T11:43:37.962Z,776.25
2017-09-17T11:44:38.034Z,697.50
2017-09-17T11:46:30.999Z,663.75
2017-09-17T11:47:31.095Z,658.13
2017-09-17T11:49:24.145Z,663.75
2017-09-17T11:50:24.155Z,680.63
2017-09-17T11:52:17.193Z,697.50
2017-09-17T11:53:17.207Z,680.63
2017-09-17T11:55:10.230Z,680.63
2017-09-17T11:56:10.270Z,725.63
2017-09-17T11:58:03.300Z,703.13
2017-09-17T11:59:03.392Z,652.50
2017-09-17T12:00:56.372Z,725.63
2017-09-17T12:01:56.413Z,781.88
2017-09-17T12:03:49.449Z,748.13
2017-09-17T12:04:49.491Z,697.50
2017-09-17T12:06:42.500Z,540.00
2017-09-17T12:07:42.563Z,568.13
2017-09-17T12:09:35.585Z,646.88
2017-09-17T12:10:35.633Z,663.75
2017-09-17T12:12:28.661Z,613.13
2017-09-17T12:13:28.700Z,590.63
2017-09-17T12:15:23.272Z,545.63
2017-09-17T12:16:23.271Z,506.25
2017-09-17T12:18:16.269Z,461.25
2017-09-17T12:19:16.339Z,455.63
2017-09-17T12:21:09.356Z,472.50
2017-09-17T12:22:09.397Z,466.88
2017-09-17T12:24:02.424Z,472.50
2017-09-17T12:25:02.484Z,461.25
2017-09-17T12:26:55.468Z,472.50
2017-09-17T12:27:55.550Z,483.75
2017-09-17T12:29:48.549Z,523.13
2017-09-17T12:30:48.594Z,528.75
2017-09-17T12:32:41.588Z,545.63
2017-09-17T12:33:41.654Z,556.88
2017-09-17T12:35:34.670Z,528.75
2017-09-17T12:36:34.716Z,483.75
2017-09-17T12:38:27.712Z,455.63
2017-09-17T12:39:27.778Z,466.88
2017-09-17T12:41:20.793Z,523.13
2017-09-17T12:42:20.839Z,523.13
2017-09-17T12:44:13.853Z,472.50
2017-09-17T12:45:13.898Z,461.25
2017-09-17T12:47:06.894Z,489.38
2017-09-17T12:48:06.958Z,478.13
2017-09-17T12:49:59.974Z,365.63
2017-09-17T12:51:00.027Z,337.50
2017-09-17T12:52:53.013Z,365.63
2017-09-17T12:53:53.080Z,376.88
2017-09-17T12:55:46.096Z,365.63
2017-09-17T12:56:46.139Z,365.63
2017-09-17T12:58:39.133Z,337.50
2017-09-17T12:59:39.198Z,303.75
2017-09-17T13:01:32.211Z,270.00
2017-09-17T13:02:32.256Z,247.50
2017-09-17T13:04:25.271Z,230.63
2017-09-17T13:05:25.316Z,264.38
2017-09-17T13:07:18.311Z,286.88
2017-09-17T13:08:18.374Z,303.75
2017-09-17T13:10:11.388Z,331.88
2017-09-17T13:11:11.432Z,354.38
2017-09-17T13:13:04.450Z,399.38
2017-09-17T13:14:04.493Z,450.00
2017-09-17T13:15:57.510Z,511.88
2017-09-17T13:16:57.554Z,523.13
2017-09-17T13:18:50.558Z,511.88
2017-09-17T13:19:50.619Z,506.25
2017-09-17T13:21:43.634Z,489.38
2017-09-17T13:22:43.679Z,489.38
2017-09-17T13:24:36.694Z,483.75
2017-09-17T13:25:36.739Z,483.75
2017-09-17T13:27:29.733Z,489.38
2017-09-17T13:28:29.799Z,506.25
2017-09-17T13:30:22.818Z,517.50
2017-09-17T13:31:22.865Z,523.13
2017-09-17T13:33:15.880Z,528.75
2017-09-17T13:34:15.926Z,523.13
2017-09-17T13:36:08.942Z,506.25
2017-09-17T13:37:08.987Z,489.38
2017-09-17T13:39:01.983Z,472.50
2017-09-17T13:40:02.049Z,461.25
2017-09-17T13:41:55.070Z,421.88
2017-09-17T13:42:55.118Z,399.38
2017-09-17T13:44:48.135Z,371.25
2017-09-17T13:45:48.185Z,360.00
2017-09-17T13:47:41.175Z,343.13
2017-09-17T13:48:41.243Z,343.13
2017-09-17T13:50:34.264Z,331.88
2017-09-17T13:51:34.304Z,326.25
2017-09-17T13:53:27.299Z,320.63
2017-09-17T13:54:27.365Z,320.63
2017-09-17T13:56:20.382Z,320.63
2017-09-17T13:57:20.462Z,326.25
2017-09-17T13:59:13.422Z,326.25
2017-09-17T14:00:13.485Z,326.25
2017-09-17T14:02:06.500Z,326.25
2017-09-17T14:03:06.544Z,326.25
2017-09-17T14:04:59.560Z,343.13
2017-09-17T14:05:59.609Z,360.00
2017-09-17T14:07:52.615Z,376.88
2017-09-17T14:08:52.665Z,393.75
2017-09-17T14:10:45.679Z,421.88
2017-09-17T14:11:45.722Z,438.75
2017-09-17T14:13:38.722Z,444.38
2017-09-17T14:14:38.785Z,444.38
2017-09-17T14:16:31.800Z,416.25
2017-09-17T14:17:31.844Z,393.75
2017-09-17T14:19:24.841Z,376.88
2017-09-17T14:20:24.903Z,382.50
2017-09-17T14:22:17.930Z,376.88
2017-09-17T14:23:17.971Z,360.00
2017-09-17T14:25:10.978Z,343.13
2017-09-17T14:26:11.026Z,337.50
2017-09-17T14:28:04.047Z,315.00
2017-09-17T14:29:04.089Z,298.13
2017-09-17T14:30:57.101Z,281.25
2017-09-17T14:31:57.145Z,275.63
2017-09-17T14:33:50.177Z,253.13
2017-09-17T14:34:50.207Z,236.25
2017-09-17T14:36:43.235Z,213.75
2017-09-17T14:37:43.276Z,213.75
2017-09-17T14:39:36.304Z,213.75
2017-09-17T14:40:36.337Z,213.75
2017-09-17T14:42:29.355Z,208.13
2017-09-17T14:43:29.402Z,208.13
2017-09-17T14:45:22.420Z,202.50
2017-09-17T14:46:22.469Z,196.88
2017-09-17T14:48:15.463Z,174.38
2017-09-17T14:49:15.528Z,157.50
2017-09-17T14:51:08.545Z,129.38
2017-09-17T14:52:08.591Z,112.50
2017-09-17T14:54:01.584Z,95.63
2017-09-17T14:55:01.651Z,84.38
2017-09-17T14:56:54.659Z,73.13
2017-09-17T14:57:54.703Z,73.13
2017-09-17T14:59:47.697Z,61.88
2017-09-17T15:00:47.759Z,61.88
2017-09-17T15:02:40.780Z,56.25
2017-09-17T15:03:40.828Z,56.25
2017-09-17T15:05:33.836Z,50.63
2017-09-17T15:06:33.881Z,50.63
2017-09-17T15:08:26.873Z,50.63
2017-09-17T15:09:26.936Z,56.25
2017-09-17T15:11:19.948Z,56.25
2017-09-17T15:12:19.991Z,56.25
2017-09-17T15:14:13.000Z,56.25
2017-09-17T15:15:13.044Z,61.88
2017-09-17T15:17:06.057Z,61.88
2017-09-17T15:18:06.104Z,61.88
2017-09-17T15:19:59.094Z,61.88
2017-09-17T15:20:59.154Z,61.88
2017-09-17T15:22:52.165Z,61.88
2017-09-17T15:23:52.208Z,61.88
2017-09-17T15:25:45.220Z,56.25
2017-09-17T15:26:45.265Z,56.25
2017-09-17T15:28:38.260Z,56.25
2017-09-17T15:29:38.322Z,56.25
2017-09-17T15:31:31.361Z,56.25
2017-09-17T15:32:31.381Z,61.88
2017-09-17T15:34:24.375Z,61.88
2017-09-17T15:35:24.438Z,61.88
2017-09-17T15:37:17.451Z,61.88
2017-09-17T15:38:17.495Z,56.25
2017-09-17T15:40:10.500Z,56.25
2017-09-17T15:41:10.550Z,56.25
2017-09-17T15:43:03.564Z,56.25
2017-09-17T15:44:03.606Z,56.25
2017-09-17T15:45:56.635Z,61.88
2017-09-17T15:46:56.659Z,61.88
2017-09-17T15:48:49.651Z,73.13
2017-09-17T15:49:49.714Z,78.75
2017-09-17T15:51:42.751Z,84.38
2017-09-17T15:52:42.789Z,90.00
2017-09-17T15:54:35.766Z,90.00
2017-09-17T15:55:35.831Z,95.63
2017-09-17T15:57:28.846Z,95.63
2017-09-17T15:58:28.889Z,95.63
2017-09-17T16:00:21.883Z,95.63
2017-09-17T16:01:21.946Z,95.63
2017-09-17T16:03:14.997Z,101.25
2017-09-17T16:04:15.008Z,106.88
2017-09-17T16:06:08.029Z,112.50
2017-09-17T16:07:08.062Z,118.13
2017-09-17T16:09:01.067Z,123.75
2017-09-17T16:10:01.128Z,129.38
2017-09-17T16:11:54.155Z,140.63
2017-09-17T16:12:54.192Z,140.63
2017-09-17T16:14:47.708Z,146.25
2017-09-17T16:15:47.763Z,146.25
2017-09-17T16:17:40.767Z,151.88
2017-09-17T16:18:40.804Z,157.50
2017-09-17T16:20:33.797Z,151.88
2017-09-17T16:21:33.859Z,146.25
2017-09-17T16:23:26.872Z,135.00
2017-09-17T16:24:26.915Z,129.38
2017-09-17T16:26:19.933Z,118.13
2017-09-17T16:27:19.976Z,112.50
2017-09-17T16:29:12.965Z,101.25
2017-09-17T16:30:13.029Z,95.63
2017-09-17T16:32:06.055Z,90.00
2017-09-17T16:33:06.085Z,90.00
2017-09-17T16:34:59.081Z,84.38
2017-09-17T16:35:59.147Z,84.38
2017-09-17T16:37:52.173Z,78.75
2017-09-17T16:38:52.206Z,78.75
2017-09-17T16:40:45.194Z,73.13
2017-09-17T16:41:45.271Z,73.13
2017-09-17T16:43:38.270Z,67.50
2017-09-17T16:44:38.309Z,67.50
2017-09-17T16:46:31.324Z,67.50
2017-09-17T16:47:31.365Z,67.50
2017-09-17T16:49:24.357Z,61.88
2017-09-17T16:50:24.418Z,61.88
2017-09-17T16:52:17.446Z,56.25
2017-09-17T16:53:17.494Z,50.63
2017-09-17T16:55:10.968Z,50.63
2017-09-17T16:56:11.031Z,50.63
2017-09-17T16:58:04.171Z,45.00
2017-09-17T16:59:04.086Z,45.00
2017-09-17T17:00:57.077Z,45.00
2017-09-17T17:01:57.141Z,45.00
2017-09-17T17:03:50.157Z,39.38
2017-09-17T17:04:50.191Z,39.38
2017-09-17T17:06:43.201Z,39.38
2017-09-17T17:07:43.245Z,39.38
2017-09-17T17:09:36.232Z,33.75
2017-09-17T17:10:36.304Z,33.75
2017-09-17T17:12:29.435Z,33.75
2017-09-17T17:13:29.373Z,28.13
2017-09-17T17:15:22.846Z,28.13
2017-09-17T17:16:22.942Z,28.13
2017-09-17T17:18:15.917Z,22.50
2017-09-17T17:19:15.958Z,22.50
2017-09-17T17:21:08.952Z,22.50
2017-09-17T17:22:09.011Z,22.50
2017-09-17T17:24:02.021Z,16.88
2017-09-17T17:25:02.063Z,16.88
2017-09-17T17:26:55.071Z,16.88
2017-09-17T17:27:55.112Z,11.25
2017-09-17T17:29:48.107Z,11.25
2017-09-17T17:30:48.171Z,11.25
2017-09-17T17:32:41.179Z,11.25
2017-09-17T17:33:41.228Z,5.63
2017-09-17T17:35:34.244Z,5.63
2017-09-17T17:36:34.282Z,5.63
2017-09-17T17:38:27.292Z,5.63
2017-09-17T17:39:27.334Z,0.00
2017-09-17T17:41:20.335Z,0.00
2017-09-17T17:42:20.397Z,0.00
2017-09-17T17:44:13.407Z,0.00
2017-09-17T17:45:13.449Z,0.00
2017-09-17T17:47:06.472Z,0.00
2017-09-17T17:48:06.515Z,0.00
2017-09-17T17:49:59.507Z,0.00
2017-09-17T17:50:59.567Z,0.00
2017-09-17T17:52:52.579Z,0.00
2017-09-17T17:53:52.618Z,0.00
2017-09-17T17:55:45.608Z,0.00
2017-09-17T17:56:45.670Z,0.00
2017-09-17T17:58:38.693Z,0.00
2017-09-17T17:59:38.719Z,0.00
2017-09-17T18:01:31.716Z,0.00
2017-09-17T18:02:31.798Z,0.00
2017-09-17T18:04:24.801Z,0.00
2017-09-17T18:05:24.838Z,0.00
2017-09-17T18:07:17.848Z,0.00
2017-09-17T18:08:17.888Z,0.00
2017-09-17T18:10:10.879Z,0.00
2017-09-17T18:11:10.938Z,0.00
2017-09-17T18:13:03.953Z,0.00
2017-09-17T18:14:03.996Z,0.00
2017-09-17T18:15:56.986Z,0.00
2017-09-17T18:16:57.046Z,0.00
2017-09-17T18:18:50.055Z,0.00
2017-09-17T18:19:50.097Z,0.00
2017-09-17T18:21:43.095Z,0.00
2017-09-17T18:22:43.150Z,0.00